• Join FlightAware (Why Join?)
  • Login
  • US Flag 
10:57PM EST


 

Airport Tracker/Info


-or-


 

Live Flight TrackerFlight Track Log ✈ UAL656 ✈ 03-Jul-2013 ✈ KORD - KALB

Flight Track Log - Related Links

Times and Time Zones

All times are in EDT time to prevent confusion due to time zone crossing. See the UAL656 flight status page for this flight to view local times or setup timezone preferences in your user account.

Time Position Orientation Groundspeed Altitude Reporting Facility
EDT Latitude Longitude Course Direction KTS MPH feet Rate Location/Type
04:23PM 42.0167 -87.9333 66° East 195 224 2,400  Level Chicago TRACON
04:24PM 42.0500 -87.8500 62° Northeast 249 287 5,100 2,580 Climbing Chicago TRACON
04:25PM 42.1194 -87.4933 62° Northeast  Level FlightAware Approximate
04:25PM 42.0847 -87.7519 64° Northeast 275 316 8,400  Level Chicago Center
04:26PM 42.1715 -87.3522 66° East  Level FlightAware Approximate
04:26PM 42.1211 -87.6206 69° East 312 359 10,800  Level Chicago Center
04:27PM 42.2191 -87.2081 69° East  Level FlightAware Approximate
04:27PM 42.1603 -87.4864 68° East 377 434 13,200  Level Chicago Center
04:28PM 42.2628 -87.0616 66° East  Level FlightAware Approximate
04:29PM 42.2003 -87.3442 69° East 403 464 15,500  Level Chicago Center
04:30PM 42.2419 -87.1950 69° East 422 486 17,900 2,160 Climbing Chicago Center
04:31PM 42.2783 -87.0394 72° East 435 501 20,000 2,580 Climbing Chicago Center
04:32PM 42.2872 -86.8472 86° East 426 490 23,300 2,460 Climbing Chicago Center
04:33PM 42.2936 -86.6844 87° East 435 501 25,100 1,560 Climbing Chicago Center
04:34PM 42.3014 -86.5022 87° East 456 525 26,600 1,500 Climbing Chicago Center
04:35PM 42.3069 -86.3261 87° East 470 541 28,200 1,020 Climbing Chicago Center
04:36PM 42.3128 -86.1428 87° East 486 559 28,800 960 Climbing Chicago Center
04:37PM 42.3136 -85.9475 90° East 517 595 30,300 1,440 Climbing Chicago Center
04:38PM 42.3111 -85.7567 91° East 515 593 31,800 1,680 Climbing Chicago Center
04:39PM 42.3089 -85.5275 91° East 517 595 33,800 1,860 Climbing Chicago Center
04:40PM 42.3067 -85.3408 91° East 506 582 35,700 1,500 Climbing Chicago Center
04:41PM 42.3033 -85.1597 91° East 492 566 36,900 600 Climbing Chicago Center
04:42PM 42.2994 -84.9811 92° East 482 555 37,000  Climbing Chicago Center
04:43PM 42.2950 -84.8014 92° East 481 554 37,000  Level Chicago Center
04:44PM 42.2894 -84.5825 92° East 487 560 37,000  Level Chicago Center
04:45PM 42.2978 -84.3947 87° East 509 586 37,000  Level Chicago Center
04:46PM 42.3189 -84.2283 80° East 494 568 37,000  Level Cleveland Center
04:47PM 42.3478 -84.0389 78° East 506 582 37,000  Level Cleveland Center
04:48PM 42.3742 -83.8492 79° East 511 588 37,000  Level Cleveland Center
04:49PM 42.4025 -83.6567 79° East 511 588 37,000  Level Cleveland Center
04:50PM 42.4142 -83.4433 86° East 520 598 37,000  Level Cleveland Center
04:51PM 42.4186 -83.2581 88° East 505 581 37,000 120 Level Cleveland Center
04:52PM 42.4272 -83.0669 86° East 505 581 37,300 600 Climbing Cleveland Center
04:53PM 42.4311 -82.8758 88° East 500 575 38,200 720 Climbing Cleveland Center
04:54PM 42.4369 -82.6847 88° East 500 575 38,800 360 Climbing Cleveland Center
04:55PM 42.4422 -82.4964 88° East 500 575 39,000 60 Climbing Cleveland Center
04:56PM 42.4472 -82.3053 88° East 500 575 39,000  Level Cleveland Center
04:57PM 42.4539 -82.1367 87° East 500 575 39,000  Level Cleveland Center
04:58PM 42.4567 -81.9200 89° East 505 581 39,000  Level Cleveland Center
04:59PM 42.4650 -81.7314 87° East 505 581 39,000  Level Cleveland Center
05:00PM 42.4686 -81.5403 88° East 510 587 39,000  Level Cleveland Center
05:01PM 42.4722 -81.3489 88° East 505 581 39,000  Level Cleveland Center
05:02PM 42.4733 -81.1575 89° East 505 581 39,000  Level Cleveland Center
05:03PM 42.4783 -80.9689 88° East 505 581 39,000  Level Cleveland Center
05:04PM 42.4808 -80.7747 89° East 505 581 39,000  Level Cleveland Center
05:05PM 42.4831 -80.5803 89° East 505 581 39,000  Level Cleveland Center
05:06PM 42.4831 -80.4114 90° East 510 587 39,000  Level Cleveland Center
05:07PM 42.4867 -80.2172 88° East 510 587 39,000  Level Cleveland Center
05:08PM 42.4903 -80.0286 88° East 510 587 39,000  Level Cleveland Center
05:09PM 42.4892 -79.8369 90° East 510 587 39,000  Level Cleveland Center
05:10PM 42.4897 -79.6456 90° East 510 587 39,000  Level Cleveland Center
05:11PM 42.4922 -79.4597 89° East 504 580 39,000  Level Cleveland Center
05:12PM 42.4925 -79.2711 90° East 498 573 39,000  Level Cleveland Center
05:13PM 42.5067 -79.0819 84° East 498 573 39,000  Level Cleveland Center
05:14PM 42.5189 -78.8958 85° East 498 573 39,000  Level Cleveland Center
05:15PM 42.5325 -78.7039 84° East 498 573 39,000 -180 Level Cleveland Center
05:16PM 42.5606 -78.5225 78° East 498 573 38,700 -3,000 Descending Cleveland Center
05:17PM 42.6072 -78.3378 71° East 503 579 33,000 -2,700 Descending Cleveland Center
05:18PM 42.6450 -78.1472 75° East 510 587 33,400 -300 Climbing Cleveland Center
05:19PM 42.6575 -77.9519 85° East 515 593 32,400 -1,440 Descending Cleveland Center
05:20PM 42.6675 -77.7567 86° East 515 593 30,600 -1,800 Descending Cleveland Center
05:21PM 42.6728 -77.5586 88° East 520 598 28,900 -480 Descending Cleveland Center
05:24PM 42.6914 -76.9747 87° East 532 612 29,000  Climbing Boston Center
05:25PM 42.6956 -76.8139 88° East 532 612 29,000  Level Boston Center
05:26PM 42.7044 -76.5769 87° East 532 612 29,000  Level Boston Center
05:27PM 42.7075 -76.3764 89° East 527 606 29,000 -900 Level Boston Center
05:28PM 42.7161 -76.1792 87° East 527 606 27,200 -2,040 Descending Boston Center
05:29PM 42.7183 -75.9842 89° East 522 601 25,000 -1,380 Descending Boston Center
05:30PM 42.7239 -75.7950 88° East 509 586 24,500 -1,440 Descending Boston Center
05:31PM 42.7272 -75.6086 89° East 498 573 22,200 -2,400 Descending Boston Center
05:32PM 42.7300 -75.4308 89° East 484 557 19,800 -2,340 Descending Boston Center
05:33PM 42.7344 -75.2614 88° East 467 537 17,600 -2,400 Descending Boston Center
05:34PM 42.7339 -75.1000 90° East 438 504 15,100 -2,460 Descending Boston Center
05:35PM 42.7378 -74.9392 88° East 433 498 12,700 -2,100 Descending Boston Center
05:36PM 42.7389 -74.7836 89° East 419 482 11,000 -900 Descending Boston Center
05:37PM 42.7394 -74.6481 90° East 405 466 11,000  Level Boston Center
05:38PM 42.7422 -74.5039 88° East 362 417 11,000 -600 Level Boston Center
05:39PM 42.7628 -74.3972 75° East 326 375 9,800 -1,320 Descending Boston Center
05:40PM 42.7961 -74.2822 68° East 303 349 8,400 -1,440 Descending Boston Center
05:41PM 42.8225 -74.1867 69° East 303 349 7,000 -1,740 Descending Boston Center
05:42PM 42.8489 -74.0939 69° East 298 343 5,000 -1,800 Descending Boston Center
05:43PM 42.8733 -73.9925 72° East 270 311 3,400 -1,200 Descending Boston Center
05:44PM 42.8622 -73.8903 98° East 212 244 2,400 -900 Descending Boston Center